Huaral, Peru
Current Conditions -  °F | °C
As of 8:00 AM on Saturday 25 Oct 2014 (Local Time) from SPIM Reporting Station
Overcast Overcast  
Wind Chill: 64°   Ceiling: 2800
Heat Index: 64°   Visibility: 6mi
Dew Point: 59°   Wind: 2mph
Humidity: 83%   Direction: NA
Pressure: 30.06"   Gusts: NA
Location:  11.5°S, 77.21°W
Report Text: SPIM 251300Z VRB02KT 9999 FEW012 OVC028 18/15 Q1018 NOSIG RMK PP000
Loading
Personal Weather Stations






























Interactive Weather Map
Tropical Storm Tracking
New forecast layout! Learn more

10-Day Weather Forecast

Advertisements
Track Severe Weather on mobile